Tiempo atmosférico en la estación meteorológica de Calanda, Teruel (459 m.)



Fecha
DESCASC
Temp. máxima en grados centígrados (hora)
DESCASC
Temp. mínima en grados centígrados (hora)
DESCASC
Temp. media en grados centígrados
DESCASC
Racha de viento máxima en m/sg (hora)
DESCASC
Velocidad máxima media en intervalos de 10 minutos(hora)
DESCASC
Precipitaciones diarias en mm
DESCASC
Precipitaciones de 00:00 a 06:00 en mm
DESCASC
Precipitaciones de 06:00 a 12:00 en mm
DESCASC
Precipitaciones de 12:00 a 18:00 en mm
DESCASC
Precipitaciones de 18:00 a 24:00 en mm
DESCASC
15-11-2018 13.8 (16:30) 10.3 (03:40) 12.1 3.06 (04:20) 1.94 (16:30) 3.8 0 3.6 0.2 0
14-11-2018 18 (15:20) 11.1 (03:30) 14.6 5.28 (16:50) 2.78 (16:50) 0 0 0 0 0
13-11-2018 15.8 (16:50) 8 (07:40) 11.9 4.44 (09:10) 3.06 (09:10) 0 0 0 0 0
12-11-2018 20.6 (15:50) 11.2 (23:59) 15.9 11.67 (00:40) 6.11 (04:10) 0 0 0 0 0
11-11-2018 21.9 (14:40) 10.7 (00:00) 16.3 13.06 (23:59) 6.67 (23:59) 0 0 0 0 0
10-11-2018 19.6 (16:00) 8.7 (00:00) 14.2 8.33 (01:00) 5.28 (00:50) 0 0 0 0 0
09-11-2018 13.9 (15:00) 5.9 (00:00) 9.9 11.39 (06:40) 7.22 (06:40) 4.4 4.4 0 0 0
08-11-2018 17.2 (15:10) 7.5 (00:00) 12.4 -- (--) -- (--) 8.4 0 0 0 8.4
07-11-2018 17.7 (13:10) 6.4 (00:00) 12.1 5.83 (22:20) 4.17 (05:20) 0 0 0 0 0
06-11-2018 14.6 (15:30) 4.9 (00:00) 9.8 10.83 (07:20) 7.22 (12:30) 0.2 0.2 0 0 0
05-11-2018 14.5 (12:10) 5.9 (00:00) 10.2 7.22 (18:30) 3.89 (10:50) 1.6 0 0 1.6 0
04-11-2018 16.3 (15:50) 4.1 (00:00) 10.2 6.39 (02:40) 4.72 (07:50) 0 0 0 0 0
03-11-2018 14 (16:00) 6.3 (00:00) 10.2 8.89 (00:10) 4.72 (00:10) 0 0 0 0 0
02-11-2018 13.1 (17:10) 7.5 (00:00) 10.3 9.17 (22:10) 5.28 (13:00) 2.4 0.6 1.8 0 0
01-11-2018 13.5 (16:40) 5.1 (00:00) 9.3 7.5 (11:40) 4.72 (16:20) 0 0 0 0 0
31-10-2018 10.6 (15:30) 7 (00:00) 8.8 6.39 (14:10) 3.61 (16:20) 6 1.8 0.6 3 0.6
30-10-2018 11.4 (15:30) 2 (00:00) 6.7 13.33 (17:30) 7.5 (17:30) 1.4 0 0.2 0.8 0.4
29-10-2018 9.8 (12:40) 3.4 (00:00) 6.6 17.22 (12:30) 10 (13:20) 0 0 0 0 0
28-10-2018 8.2 (12:20) 3.7 (00:00) 5.9 10.83 (14:00) 6.67 (11:10) 0.2 0.2 0 0 0
27-10-2018 14.5 (00:00) 7.2 (00:00) 10.8 11.94 (15:10) 7.5 (14:30) 7.8 2.4 5 0 0.4
26-10-2018 20.3 (14:50) 11.6 (00:00) 15.9 5.83 (07:30) 4.17 (07:30) 1.2 0 0 0 1.2
25-10-2018 22.1 (18:00) 9.6 (00:00) 15.9 6.67 (23:50) 5 (23:50) 0 0 0 0 0
24-10-2018 20.9 (18:10) 8.6 (00:00) 14.8 5.83 (22:00) 4.44 (22:00) 0 0 0 0 0
23-10-2018 19.2 (17:40) 9.3 (00:00) 14.3 6.11 (05:40) 4.17 (22:20) 0 0 0 0 0
22-10-2018 20.2 (16:20) 11.6 (00:00) 15.9 7.78 (10:30) 4.17 (10:50) 0 0 0 0 0
21-10-2018 20.9 (17:10) 11.3 (00:00) 16.1 5.28 (21:40) 3.61 (21:40) 0 0 0 0 0
20-10-2018 18.5 (17:30) 13.3 (00:00) 15.9 3.33 (12:20) 2.5 (12:20) 0.4 0.4 0 0 0
19-10-2018 16.2 (15:10) 14 (00:00) 15.1 5.83 (12:10) 3.61 (01:30) 63.5 22 0.6 16.4 24.5
18-10-2018 16.7 (15:30) 11 (00:00) 13.9 7.22 (19:30) 4.44 (19:30) 25.4 0 0 5 20.4

Gráficas

Temp. máximas Temp. mínimas Temp. medias Precipitaciones Rachas de viento máximas Velocidades máximas media en intervalos de 10 minutos

Datos horarios

Fecha y hora oficial Temperatura (ºC) Velocidad del viento (km/h) Dirección del viento Racha (km/h) Dirección de racha Precipitación (mm) Presión (hPa) Tendencia (hPa) Humedad (%)
2018-11-16 23:00:00 10.9 3 Este 9 Este 0 965.1 -0.2 93
2018-11-16 22:00:00 11.2 4 Sudeste 8 Sur 0 965.2 0.1 91
2018-11-16 21:00:00 12.1 5 Nordeste 9 Norte 0 965.2 0.1 89
2018-11-16 20:00:00 12.5 2 Sudeste 9 Sudeste 0 965.3 0.4 89
2018-11-16 19:00:00 13.7 3 Sudeste 8 Este 0 965.1 0.2 89
2018-11-16 18:00:00 14.5 6 Este 11 Este 0 965.1 -0.3 87
2018-11-16 17:00:00 16.1 4 Este 10 Este 0 964.9 -1 82
2018-11-16 16:00:00 16.2 6 Norte 12 Nordeste 0 964.9 -1.5 81
2018-11-16 15:00:00 16.1 5 Nordeste 10 Nordeste 0 965.4 -1.7 83
2018-11-16 14:00:00 16.2 5 Nordeste 10 Nordeste 0 965.9 -1.4 81
2018-11-16 13:00:00 14.5 2 Nordeste 8 Sur 0 966.4 -0.7 88
2018-11-16 12:00:00 13.5 3 Este 10 Este 0 967.1 0.3 96
2018-11-16 11:00:00 12.9 5 Este 9 Este 0 967.3 1.1 99
2018-11-16 10:00:00 12.2 0 Calma 6 Nordeste 0 967.1 1.2 99
2018-11-16 09:00:00 11.9 0 Calma 5 Noroeste 0 966.8 0.8 99
2018-11-16 08:00:00 11.7 2 Norte 5 Este 0 966.2 0 99
2018-11-16 07:00:00 11.9 0 Calma 6 Sudeste 0 965.9 -0.5 99
2018-11-16 06:00:00 12 3 Sudoeste 6 Oeste 0 966 -0.6 99
2018-11-16 05:00:00 12.1 5 Oeste 9 Sudoeste 0 966.2 -0.6 98
2018-11-16 04:00:00 12 4 Sudoeste 6 Sudoeste 0 966.4 -0.5 98
2018-11-16 03:00:00 11.9 4 Oeste 5 Oeste 0 966.6 -0.4 98
2018-11-16 02:00:00 11.7 2 Oeste 5 Oeste 0.4 966.8 0.4 98
2018-11-16 01:00:00 11.6 3 Oeste 5 Noroeste 0 966.9 0.7 97
2018-11-16 00:00:00 11.5 2 Sudoeste 6 Oeste 0 967 1 97
2018-11-15 23:00:00 11.5 2 Sudeste 5 Sur 0 966.4 0.6 96
2018-11-15 22:00:00 12 3 Sur 5 Sur 0 966.2 0.7 96
2018-11-15 21:00:00 12.4 0 Calma 5 Norte 0 966 0.7 96
2018-11-15 20:00:00 12.3 0 Calma 6 Noroeste 0 965.8 0.7 95
2018-11-15 19:00:00 12.3 2 Nordeste 8 Noroeste 0 965.5 0.5 94
2018-11-15 18:00:00 13 3 Norte 11 Norte 0 965.3 0.2 93
2018-11-15 17:00:00 13.4 7 Norte 11 Norte 0 965.1 -0.2 91
2018-11-15 16:00:00 13.4 6 Norte 10 Norte 0 965 -0.9 94
2018-11-15 15:00:00 13.3 5 Norte 7 Norte 0 965.1 -1.2 91
2018-11-15 14:00:00 12.8 3 Nordeste 8 Nordeste 0 965.3 -0.8 96
2018-11-15 13:00:00 12.8 4 Nordeste 6 Nordeste 0.2 965.9 -0.1 97
2018-11-15 12:00:00 12.4 3 Sur 6 Sudoeste 1.2 966.3 0.8 97
2018-11-15 11:00:00 12.1 3 Norte 7 Sudeste 2 966.1 1 96
2018-11-15 10:00:00 12.4 2 Nordeste 6 Sudoeste 0.4 966 1.1 96
2018-11-15 09:00:00 12.4 3 Oeste 7 Oeste 0 965.5 0.6 96
2018-11-15 08:00:00 12 4 Oeste 7 Sudoeste 0 965.1 0.2 95
2018-11-15 07:00:00 11.4 4 Sudoeste 7 Sudoeste 0 964.9 -0.4 93
2018-11-15 06:00:00 11.1 2 Noroeste 8 Sur 0 964.9 -0.9 93
2018-11-15 05:00:00 11.2 5 Oeste 11 Sudoeste 0 964.9 -1.2 92
2018-11-15 04:00:00 10.3 7 Oeste 9 Oeste 0 965.3 -1.3 93
2018-11-15 03:00:00 11.1 4 Oeste 7 Sudoeste 0 965.8 -1 91
2018-11-15 02:00:00 11.7 2 Norte 6 Norte 0 966.1 -0.9 89
2018-11-15 01:00:00 12.7 0 Calma 6 Norte 0 966.6 -0.6 85
2018-11-15 00:00:00 12.2 0 Calma 6 Oeste 0 966.8 -0.3 90
2018-11-14 23:00:00 12 0 Calma 5 Este 0 967 -0.3 90
2018-11-14 22:00:00 12.5 0 Calma 4 Sur 0 967.2 0 90
2018-11-14 21:00:00 12.9 0 Calma 5 Noroeste 0 967.1 0.1 89
2018-11-14 20:00:00 13.5 3 Sudeste 7 Sudeste 0 967.3 0.3 86
2018-11-14 19:00:00 14.3 2 Este 9 Este 0 967.2 -0.1 83
2018-11-14 18:00:00 15.3 5 Este 17 Este 0 967 -0.5 79
2018-11-14 17:00:00 17.1 9 Este 19 Nordeste 0 967 -1.2 71
2018-11-14 16:00:00 17.4 6 Este 16 Este 0 967.3 -1.7 70
2018-11-14 15:00:00 17.3 6 Nordeste 16 Norte 0 967.5 -2.3 77
2018-11-14 14:00:00 16.1 5 Norte 11 Norte 0 968.2 -2 82
2018-11-14 13:00:00 15.4 6 Norte 12 Nordeste 0 969 -1.4 83
2018-11-14 12:00:00 14.9 4 Noroeste 9 Norte 0 969.8 -0.3 85
2018-11-14 11:00:00 13.5 3 Norte 8 Norte 0 970.2 0.2 92
2018-11-14 10:00:00 12.5 3 Norte 6 Norte 0 970.4 0.3 95
2018-11-14 09:00:00 11.8 0 Calma 4 Sudoeste 0 970.1 -0.3 95
2018-11-14 08:00:00 11.4 3 Sudoeste 6 Sudoeste 0 970 -0.4 95
2018-11-14 07:00:00 11.4 0 Calma 3 Sur 0 970.1 -0.4 94
2018-11-14 06:00:00 11.5 0 Calma 5 Sudoeste 0 970.4 -0.6 94
2018-11-14 05:00:00 11.6 3 Sudoeste 10 Sudoeste 0 970.4 -0.8 94
2018-11-14 04:00:00 11.1 4 Oeste 9 Oeste 0 970.5 -1 95
2018-11-14 03:00:00 11.3 0 Calma 5 Sudoeste 0 971 -0.6 93
2018-11-14 02:00:00 11.6 2 Oeste 5 Sudoeste 0 971.2 -0.7 94
2018-11-14 01:00:00 11.2 3 Sur 5 Sur 0 971.5 -0.3 94
2018-11-14 00:00:00 11.3 0 Calma 7 Oeste 0 971.6 -0.2 95
2018-11-13 23:00:00 11 3 Oeste 8 Sudoeste 0 971.9 0.1 96
2018-11-13 22:00:00 10.4 5 Sudoeste 8 Norte 0 971.8 0.4 94
2018-11-13 21:00:00 10.5 2 Sudoeste 5 Sur 0 971.8 0.6 93
2018-11-13 20:00:00 11.1 0 Calma 6 Oeste 0 971.8 0.8 92
2018-11-13 19:00:00 12.5 3 Sur 5 Sudeste 0 971.4 0.7 89
2018-11-13 18:00:00 14.2 2 Norte 7 Nordeste 0 971.2 0.5 84
2018-11-13 17:00:00 15.3 3 Nordeste 6 Norte 0 971 0.1 77
2018-11-13 16:00:00 15.4 3 Oeste 5 Oeste 0 970.7 -0.5 76
2018-11-13 15:00:00 15.6 2 Sudeste 9 Oeste 0 970.7 -0.8 76
2018-11-13 14:00:00 15 4 Oeste -- -- -- 970.9 -0.5 76
2018-11-13 13:00:00 15.4 5 Sur 14 Sudoeste 0 971.2 0.2 74
2018-11-13 12:00:00 12.5 8 Sudoeste 12 Sudoeste 0 971.5 1.2 90
2018-11-13 11:00:00 11.4 9 Sudoeste 12 Sudoeste 0 971.4 2.1 94
2018-11-13 10:00:00 11.1 4 Sudoeste 16 Sudoeste 0 971 2.2 95
2018-11-13 09:00:00 9.8 9 Sudoeste 14 Oeste 0 970.3 2 97
2018-11-13 08:00:00 8.9 8 Oeste 12 Oeste 0 969.3 1.3 96
2018-11-13 07:00:00 8.5 4 Oeste 11 Oeste 0 968.8 1.2 91
2018-11-13 06:00:00 9.3 8 Oeste 11 Oeste 0 968.3 1 90
2018-11-13 05:00:00 11 6 Noroeste 11 Sudoeste 0 968 1.1 91
2018-11-13 04:00:00 11.1 9 Sudoeste 15 Sudoeste 0 967.6 1.3 83
2018-11-13 03:00:00 10.8 7 Sudoeste 11 Sudoeste 0 967.3 1.5 86
2018-11-13 02:00:00 11 9 Sudoeste 13 Oeste 0 966.9 1.4 88
2018-11-13 01:00:00 10.9 5 Oeste 10 Sudoeste 0 966.3 1.5 89
2018-11-13 00:00:00 11.2 5 Oeste 8 Oeste 0 965.8 1.7 88
2018-11-12 23:00:00 12.6 2 Noroeste 13 Sudoeste 0 965.5 1.7 81
2018-11-12 22:00:00 14.9 8 Sur 27 Sudeste 0 964.8 1.6 68
2018-11-12 21:00:00 15.4 13 Sur 33 Sur 0 964.1 1.7 65
2018-11-12 20:00:00 15.1 8 Sur 21 Sur 0 963.8 1.8 68
2018-11-12 19:00:00 14.7 5 Sur 18 Sur 0 963.2 1.4 77
2018-11-12 18:00:00 17.1 9 Sudeste 20 Este 0 962.4 0.5 58
2018-11-12 17:00:00 18.4 8 Este 21 Nordeste 0 962 -0.3 61
2018-11-12 16:00:00 20 9 Este 22 Sudeste 0 961.8 -0.6 56
2018-11-12 15:00:00 20.4 10 Sudeste 22 Sudeste 0 961.9 -1 48
2018-11-12 14:00:00 19.2 13 Sudeste 28 Sudeste 0 962.3 -0.6 52
2018-11-12 13:00:00 19.3 17 Sudeste 28 Sudeste 0 962.4 -0.2 51
2018-11-12 12:00:00 18.4 11 Sudeste 27 Sudeste 0 962.9 0.7 53
2018-11-12 11:00:00 17.9 13 Sudeste 20 Sur 0 962.9 1.3 52
2018-11-12 10:00:00 16.8 5 Sudeste 13 Sudeste 0 962.6 1.6 57
2018-11-12 09:00:00 15.2 6 Sur 20 Sur 0 962.2 1.8 65
2018-11-12 08:00:00 13.6 9 Sur 32 Sudoeste 0 961.6 1.6 73
2018-11-12 07:00:00 14.3 12 Sur 40 Sudeste 0 961 1.1 69
2018-11-12 06:00:00 14.6 15 Sur 34 Sudeste 0 960.4 0.9 67
2018-11-12 05:00:00 14.6 18 Sur 41 Sudeste 0 960 0.6 67
2018-11-12 04:00:00 14.5 19 Sur 35 Sur 0 959.9 0.6 67
2018-11-12 03:00:00 14.4 18 Sudeste 32 Sudeste 0 959.5 1.1 68
2018-11-12 02:00:00 14.3 10 Sur 34 Sudeste 0 959.4 0.7 70
2018-11-12 01:00:00 15 9 Sudeste 42 Sudeste 0 959.3 0.3 64
2018-11-12 00:00:00 16.1 24 Sudeste 47 Sur 0 958.4 -0.4 60
2018-11-11 23:00:00 16.6 19 Sur 39 Sur 0 958.7 0.5 62
2018-11-11 22:00:00 15.6 6 Sudeste 24 Sudeste 0 959 0.9 68
2018-11-11 21:00:00 16.8 18 Sur 33 Sur 0 958.8 0.8 62
2018-11-11 20:00:00 17 18 Sur 37 Sudeste 0 958.2 0 61
2018-11-11 19:00:00 16.6 13 Sudeste 29 Sudeste 0 958.1 -0.4 61
2018-11-11 18:00:00 17.5 3 Oeste 14 Nordeste 0 958 -0.8 62
2018-11-11 17:00:00 19.8 8 Nordeste 15 Norte 0 958.2 -1.5 52
2018-11-11 16:00:00 21 5 Nordeste 14 Nordeste 0 958.5 -2 43
2018-11-11 15:00:00 20.9 6 Nordeste 12 Nordeste 0 958.8 -2.3 40
2018-11-11 14:00:00 21.3 3 Sudoeste 10 Oeste 0 959.7 -1.7 38
2018-11-11 13:00:00 20 5 Noroeste 18 Sudoeste 0 960.5 -0.3 43
2018-11-11 12:00:00 17.5 11 Sudoeste 18 Sur 0 961.1 0.5 59
2018-11-11 11:00:00 15.4 6 Sur 19 Sudoeste 0 961.4 1 67
2018-11-11 10:00:00 14.5 10 Sur 19 Sudoeste 0 960.8 1.1 68
2018-11-11 09:00:00 13.6 5 Sur 13 Sur 0 960.6 1.4 74
2018-11-11 08:00:00 11.8 5 Oeste 14 Sur 0 960.4 0.7 81
2018-11-11 07:00:00 11.7 3 Sudeste 17 Sudoeste 0 959.7 0.2 81
2018-11-11 06:00:00 12.5 12 Sudoeste 19 Sudoeste 0 959.2 -0.9 77
2018-11-11 05:00:00 12.2 11 Sudoeste 17 Sudoeste 0 959.7 -0.4 78
2018-11-11 04:00:00 11.9 13 Sudoeste 17 Sudoeste 0 959.5 -0.5 80
2018-11-11 03:00:00 11.8 9 Sudoeste 15 Sudoeste 0 960.1 -0.1 79
2018-11-11 02:00:00 11.9 9 Sudoeste 14 Sudoeste 0 960.1 0.2 79
2018-11-11 01:00:00 11.4 9 Sudoeste 14 Sudoeste 0 960 0.6 82
2018-11-11 00:00:00 10.7 5 Oeste 12 Nordeste 0 960.2 0.8 87
2018-11-10 23:00:00 11.5 4 Oeste 10 Sudoeste 0 959.9 0.9 83
2018-11-10 22:00:00 12.6 5 Sudeste 16 Oeste 0 959.4 0.9 79
2018-11-10 21:00:00 12.5 3 Sudoeste 7 Norte 0 959.4 1.8 82
2018-11-10 20:00:00 13.6 3 Norte 6 Noroeste 0 959 1.6 79
2018-11-10 19:00:00 15 2 Norte 12 Norte 0 958.5 1.3 69
2018-11-10 18:00:00 16.7 5 Oeste 12 Sudoeste 0 957.6 0.3 57
2018-11-10 17:00:00 18.4 5 Oeste 14 Oeste 0 957.4 0 52
2018-11-10 16:00:00 19.6 4 Este 10 Norte 0 957.2 -1.1 45
2018-11-10 15:00:00 18.6 5 Norte 14 Norte 0 957.3 -1.5 49
2018-11-10 14:00:00 18.7 8 Norte 14 Norte 0 957.4 -2 47
2018-11-10 13:00:00 17.8 2 Nordeste 12 Nordeste 0 958.3 -1.3 48
2018-11-10 12:00:00 16.3 3 Nordeste 8 Nordeste 0 958.8 -0.7 59
2018-11-10 11:00:00 15.1 2 Este 6 Este 0 959.4 0.2 62
2018-11-10 10:00:00 13.2 4 Sudeste 7 Oeste 0 959.6 0.3 70
2018-11-10 09:00:00 10.3 6 Norte 11 Norte 0 959.5 -0.1 79
2018-11-10 08:00:00 9.2 6 Sudoeste 8 Sudoeste 0 959.2 -0.7 81
2018-11-10 07:00:00 8.8 2 Norte 8 Nordeste 0 959.3 -0.6 81
2018-11-10 06:00:00 9.5 5 Sur 10 Oeste 0 959.6 -0.7 77
2018-11-10 05:00:00 10.3 4 Oeste 11 Sur 0 959.9 -0.7 75
2018-11-10 04:00:00 11.2 10 Sur 14 Sur 0 959.9 -1.3 69
2018-11-10 03:00:00 12.2 13 Sudoeste 23 Sudoeste 0 960.3 -1.6 62
2018-11-10 02:00:00 11.8 19 Sudoeste 29 Sudoeste 0 960.6 -2 62
2018-11-10 01:00:00 11.6 19 Sudoeste 30 Sudoeste 0 961.2 -1.3 61
2018-11-10 00:00:00 10.7 6 Sudoeste 22 Sudoeste 0 961.9 -0.2 67
2018-11-09 23:00:00 8 2 Nordeste 8 Sudoeste 0 962.6 0.5 84
2018-11-09 22:00:00 5.9 3 Sur 9 Sudoeste 0 962.5 0.3 85
2018-11-09 21:00:00 6.3 3 Nordeste 8 Oeste 0 962.1 0.1 81
2018-11-09 20:00:00 7.5 6 Oeste 12 Oeste 0 962.1 0.7 75
2018-11-09 19:00:00 8.6 8 Oeste 11 Oeste 0 962.2 1.3 71
2018-11-09 18:00:00 11.3 8 Noroeste 24 Noroeste 0 962 1.2 56
2018-11-09 17:00:00 13 14 Noroeste 35 Noroeste 0 961.4 0.4 50
2018-11-09 16:00:00 13.9 21 Oeste 40 Noroeste 0 960.9 -0.8 47
2018-11-09 15:00:00 13.8 22 Oeste 40 Oeste 0 960.8 -1.1 48
2018-11-09 14:00:00 12.9 26 Oeste 39 Oeste 0 961 -0.4 52
2018-11-09 13:00:00 11.8 23 Oeste 37 Oeste 0 961.7 0.5 60
2018-11-09 12:00:00 11.4 21 Oeste 40 Oeste 0 961.9 0.9 61
2018-11-09 11:00:00 10.8 19 Oeste 35 Oeste 0 961.4 1 63
2018-11-09 10:00:00 9.3 21 Oeste 31 Oeste 0 961.2 0.9 69
2018-11-09 09:00:00 8.6 21 Oeste 35 Oeste 0 961 1.3 71
2018-11-09 08:00:00 8.7 24 Oeste 37 Oeste 0 960.4 1.4 69
2018-11-09 07:00:00 9 24 Oeste 41 Oeste 0 960.3 1.9 71
2018-11-09 06:00:00 9.2 18 Oeste 36 Oeste 0 959.7 1.5 73
2018-11-09 05:00:00 9.5 12 Oeste 36 Noroeste 0 959 0.9 75
2018-11-09 04:00:00 10 14 Oeste 26 Oeste 0 958.4 -0.3 81
2018-11-09 03:00:00 10.4 7 Sudoeste 13 Oeste 0 958.2 -1.8 93
2018-11-09 02:00:00 10.5 7 Noroeste 16 Este 1 958.1 -1.9 92
2018-11-09 01:00:00 10.6 8 Este 30 Sur 3.4 958.7 -0.8 92
2018-11-09 00:00:00 11 15 Sudoeste 24 Sudoeste 4.6 960 1.1 90
2018-11-08 23:00:00 11.9 10 Sudoeste 32 Sudeste 2.4 960 1 91
2018-11-08 22:00:00 12.4 21 Sur 45 Sur 1.4 959.5 0.3 87
2018-11-08 21:00:00 13.6 24 Sur 42 Sur 0 958.9 -0.4 69
2018-11-08 20:00:00 14.1 16 Sur 31 Sur 0 959 -0.9 62
2018-11-08 19:00:00 14.2 17 Sur 30 Sur 0 959.2 -1.2 63
2018-11-08 18:00:00 14.7 13 Sudeste 30 Sudeste 0 959.3 -2.1 60
2018-11-08 17:00:00 15.5 15 Sudeste 27 Sudeste 0 959.9 -- 56
2018-11-08 16:00:00 15.9 17 Sudeste 30 Sudeste 0 960.4 -2.9 55
2018-11-08 15:00:00 16.5 12 Sudeste -- -- -- 961.4 -2.8 54
2018-11-08 14:00:00 -- -- -- -- -- -- -- -- --
2018-11-08 13:00:00 15.1 18 Sudeste 27 Sudeste 0 963.3 -1.7 54
2018-11-08 12:00:00 14.4 10 Sudeste 23 Sudeste 0 964.2 -0.9 54
2018-11-08 11:00:00 14 12 Sudeste 20 Sur 0 964.5 -0.1 52
2018-11-08 10:00:00 11.6 8 Sur 17 Sur 0 965 0.3 64
2018-11-08 09:00:00 8 7 Oeste 23 Sudoeste 0 965.1 0.4 77
2018-11-08 08:00:00 7.7 9 Sur 17 Sudoeste 0 964.6 -0.2 79
2018-11-08 07:00:00 7.9 14 Sudoeste 21 Sudoeste 0 964.7 0.1 79
2018-11-08 06:00:00 8.2 11 Sudoeste 18 Sudoeste 0 964.7 0.2 80
2018-11-08 05:00:00 8 10 Sur 17 Sudoeste 0 964.8 0.4 83
2018-11-08 04:00:00 8.3 11 Sudoeste 23 Sudoeste 0 964.6 -0.1 80
2018-11-08 03:00:00 8.6 12 Sudoeste 17 Sudoeste 0 964.5 -0.1 79
2018-11-08 02:00:00 9.3 10 Sudoeste 18 Sudoeste 0 964.4 0 79
2018-11-08 01:00:00 9.5 12 Sudoeste 15 Sudoeste 0 964.7 0.9 80
2018-11-08 00:00:00 9.4 10 Sudoeste 15 Sudoeste 0 964.6 1.4 81
2018-11-07 23:00:00 10.2 10 Sudoeste 21 Sudoeste 0 964.4 1.8 77
2018-11-07 22:00:00 10.8 10 Sur 17 Sur 0 963.8 1.6 78
2018-11-07 21:00:00 11.7 8 Sudoeste 17 Sudoeste 0 963.2 1.5 79
2018-11-07 20:00:00 11.8 12 Sudoeste 17 Sudoeste 0 962.6 1.5 82
2018-11-07 19:00:00 11.5 8 Oeste 14 Oeste 0 962.2 2 81
2018-11-07 18:00:00 12.6 4 Sudoeste 19 Noroeste 0 961.7 2.1 74
2018-11-07 17:00:00 14.6 8 Noroeste 18 Norte 0 961.1 1.9 58
2018-11-07 16:00:00 15.8 12 Norte 17 Norte 0 960.2 0.9 52
2018-11-07 15:00:00 15.9 4 Norte 14 Noroeste 0 959.6 0.2 48
2018-11-07 14:00:00 16.8 5 Este 12 Este 0 959.2 -0.1 46
2018-11-07 13:00:00 17.1 5 Nordeste 14 Este 0 959.3 0.1 42
2018-11-07 12:00:00 16.2 7 Sudeste 13 Sudeste 0 959.4 0.6 44
2018-11-07 11:00:00 13.7 2 Nordeste 11 Sudoeste 0 959.3 0.5 57
2018-11-07 10:00:00 11.9 4 Sudoeste 19 Sudoeste 0 959.2 1 60
2018-11-07 09:00:00 8.4 8 Sur 14 Sudoeste 0 958.8 1 75
2018-11-07 08:00:00 7.7 11 Sudoeste 16 Sudoeste 0 958.8 1.3 79
2018-11-07 07:00:00 6.9 5 Sudoeste 15 Sudoeste 0 958.2 0.5 80
2018-11-07 06:00:00 7.1 11 Sudoeste 20 Sudoeste 0 957.8 0.2 79
2018-11-07 05:00:00 6.7 14 Sudoeste 18 Sudoeste 0 957.5 -0.6 80
2018-11-07 04:00:00 6.8 9 Oeste 13 Oeste 0 957.7 -0.9 72
2018-11-07 03:00:00 7.8 8 Sudoeste 13 Sudeste 0 957.6 -1.1 66
2018-11-07 02:00:00 8.1 9 Sudoeste 15 Oeste 0 958.1 -0.8 67
2018-11-07 01:00:00 8.4 10 Sudoeste 19 Sudoeste 0 958.6 -0.3 63
2018-11-07 00:00:00 7.3 6 Sudoeste 11 Sudoeste 0 958.7 -0.2 71
2018-11-06 23:00:00 8.9 6 Sur 16 Sur 0 958.9 0.4 61
2018-11-06 22:00:00 9 10 Sudoeste 14 Sur 0 958.9 0.4 61
2018-11-06 21:00:00 9 3 Sudoeste 12 Sudeste 0 958.9 0.7 62
2018-11-06 20:00:00 10.4 8 Sudoeste 15 Sudoeste 0 958.5 0.5 54
2018-11-06 19:00:00 10.5 11 Sudoeste 20 Sudoeste 0 958.5 1 52
2018-11-06 18:00:00 11.5 9 Oeste 23 Oeste 0 958.2 1.1 50
2018-11-06 17:00:00 13.4 15 Oeste 32 Oeste 0 958 1 43
2018-11-06 16:00:00 13.5 13 Oeste 28 Oeste 0 957.5 0.5 48
2018-11-06 15:00:00 13.7 17 Oeste 33 Sudoeste 0 957.1 -0.3 45
2018-11-06 14:00:00 14.3 19 Oeste 36 Oeste 0 957 0 44
2018-11-06 13:00:00 13.5 23 Oeste 39 Oeste 0 957 0.5 49
2018-11-06 12:00:00 12.1 23 Oeste 38 Sudoeste 0 957.4 1.7 58
2018-11-06 11:00:00 10.5 19 Oeste 36 Oeste 0 957 2.6 62
2018-11-06 10:00:00 9.7 18 Oeste 35 Sudoeste 0 956.5 3 65
2018-11-06 09:00:00 9.1 15 Oeste 34 Oeste 0 955.7 2.5 66
2018-11-06 08:00:00 8.7 13 Oeste 39 Sudoeste 0 954.4 1.2 70
2018-11-06 07:00:00 8.7 11 Oeste 25 Sudoeste 0 953.5 1 72
2018-11-06 06:00:00 7.7 11 Sudoeste 31 Sudoeste 0.2 953.2 1 83
2018-11-06 05:00:00 8.2 13 Sudoeste 33 Sudoeste 0 953.2 1.3 77
2018-11-06 04:00:00 6.1 3 Sur 9 Sudoeste 0 952.5 0.7 87
2018-11-06 03:00:00 5.7 3 Este 7 Este 0 952.2 1 90
2018-11-06 02:00:00 5 3 Sur 9 Sudoeste 0 951.9 1.2 89
2018-11-06 01:00:00 5.5 5 Oeste 12 Sudoeste 0 951.8 1.2 89
2018-11-06 00:00:00 5.9 2 Este 19 Sudoeste 0 951.2 1.4 85
2018-11-05 23:00:00 6 5 Oeste 11 Sudoeste 0 950.7 1 87
2018-11-05 22:00:00 7.4 7 Sudoeste 13 Sudoeste 0 950.6 1.6 82
2018-11-05 21:00:00 8.1 6 Sur 8 Sudoeste 0 949.8 1.2 85
2018-11-05 20:00:00 9.1 3 Este 9 Sudoeste 0 949.7 1.3 82
2018-11-05 19:00:00 9.8 9 Oeste 26 Sudoeste 0 949 0.7 77
2018-11-05 18:00:00 10.4 12 Oeste 23 Oeste 0.4 948.6 0.1 82
2018-11-05 17:00:00 10.9 4 Sur 20 Oeste 0.2 948.4 -1.1 94
2018-11-05 16:00:00 11.4 6 Norte 18 Este 0.4 948.3 -1.2 92
2018-11-05 15:00:00 12.3 2 Oeste 13 Noroeste 0.2 948.5 -1.5 87
2018-11-05 14:00:00 12.3 9 Noroeste 15 Noroeste 0.4 949.5 -0.9 87
2018-11-05 13:00:00 13.6 7 Norte 15 Este 0 949.5 -0.8 69
2018-11-05 12:00:00 14.4 8 Este 24 Sudeste 0 950 -0.2 59
2018-11-05 11:00:00 13.1 12 Sudeste 24 Sudeste 0 950.4 0.6 59
2018-11-05 10:00:00 10.9 5 Este 14 Sudeste 0 950.3 0.4 59
2018-11-05 09:00:00 8 2 Sudoeste 6 Sur 0 950.2 0.1 72
2018-11-05 08:00:00 7.8 0 Calma 8 Este 0 949.8 -0.5 68
2018-11-05 07:00:00 9.2 2 Sudeste 16 Nordeste 0 949.9 -1 57
2018-11-05 06:00:00 8.4 3 Norte 15 Este 0 950.1 -1.6 60
2018-11-05 05:00:00 8.9 9 Sudeste 18 Este 0 950.3 -1.6 56
2018-11-05 04:00:00 8.3 2 Nordeste 15 Sur 0 950.9 -1.6 59
2018-11-05 03:00:00 9.2 6 Sur 13 Sudoeste 0 951.7 -1.5 54
2018-11-05 02:00:00 10.1 5 Sudoeste 16 Este 0 951.9 -2 49
2018-11-05 01:00:00 8.6 5 Este 10 Sudeste 0 952.5 -1.8 59
2018-11-05 00:00:00 9.7 4 Oeste 9 Sudeste 0 953.2 -1.4 53
2018-11-04 23:00:00 9.5 4 Sudeste 9 Nordeste 0 953.9 -1 60
2018-11-04 22:00:00 10.1 6 Sudeste 11 Sur 0 954.3 -0.7 62
2018-11-04 21:00:00 7.7 2 Sudoeste 5 Sudoeste 0 954.6 -0.6 77
2018-11-04 20:00:00 8.8 3 Sudoeste 10 Oeste 0 954.9 -0.8 67
2018-11-04 19:00:00 10.1 5 Oeste 8 Oeste 0 955 -1.1 65
2018-11-04 18:00:00 14.1 3 Norte 6 Nordeste 0 955.2 -1.7 47
2018-11-04 17:00:00 15.6 4 Norte 9 Nordeste 0 955.7 -1.8 31
2018-11-04 16:00:00 16.1 4 Nordeste 10 Nordeste 0 956.1 -2.4 32
2018-11-04 15:00:00 15.6 5 Noroeste 12 Norte 0 956.9 -2.6 31
2018-11-04 14:00:00 14.5 5 Nordeste 12 Nordeste 0 957.5 -2.9 32
2018-11-04 13:00:00 14.6 5 Nordeste 10 Este 0 958.5 -2.4 37
2018-11-04 12:00:00 13.6 4 Sudeste 13 Sudeste 0 959.5 -1.4 37
2018-11-04 11:00:00 12.1 5 Sudeste 13 Sudoeste 0 960.4 -0.6 43
2018-11-04 10:00:00 8.6 8 Sudoeste 19 Sudoeste 0 960.9 -0.2 58
2018-11-04 09:00:00 6.2 14 Sudoeste 22 Sudoeste 0 960.9 -0.3 69
2018-11-04 08:00:00 4.3 16 Sudoeste 22 Sudoeste 0 961 -0.4 77
2018-11-04 07:00:00 4.8 11 Sur 20 Sudoeste 0 961.1 -0.6 77
2018-11-04 06:00:00 4.9 11 Sur 19 Sudoeste 0 961.2 -1.3 78
2018-11-04 05:00:00 5.3 14 Sudoeste 21 Sudoeste 0 961.4 -1.9 79
2018-11-04 04:00:00 5.7 14 Sudoeste 21 Sudoeste 0 961.7 -2.1 78
2018-11-04 03:00:00 6 13 Sudoeste 23 Sudoeste 0 962.5 -1.9 77
2018-11-04 02:00:00 6.3 13 Sur 22 Sudoeste 0 963.3 -1.7 77
2018-11-04 01:00:00 6.2 13 Sur 22 Sudoeste 0 963.8 -1.3 77
2018-11-04 00:00:00 7 15 Sudoeste 22 Sudoeste 0 964.4 -0.7 73
2018-11-03 23:00:00 6.9 11 Sudoeste 17 Sudoeste 0 965 -0.1 76
2018-11-03 22:00:00 7.3 9 Sudoeste 17 Sudoeste 0 965.1 -0.1 76
2018-11-03 21:00:00 6.6 6 Sudoeste 10 Sudoeste 0 965.1 -0.1 82
2018-11-03 20:00:00 7.6 3 Sur 8 Oeste 0 965.1 -0.4 77
2018-11-03 19:00:00 8.9 5 Oeste 9 Oeste 0 965.2 -0.7 71
2018-11-03 18:00:00 11.3 2 Norte 10 Norte 0 965.2 -0.6 58
2018-11-03 17:00:00 12.7 8 Norte 16 Noroeste 0 965.5 -0.7 48
2018-11-03 16:00:00 14 10 Noroeste 18 Noroeste 0 965.9 -0.9 41
2018-11-03 15:00:00 13.6 9 Noroeste 19 Noroeste 0 965.8 -1.8 43
2018-11-03 14:00:00 13.3 12 Noroeste 23 Noroeste 0 966.2 -1.7 44
2018-11-03 13:00:00 12.9 11 Noroeste 21 Noroeste 0 966.8 -1.3 46
2018-11-03 12:00:00 11.8 8 Norte 22 Oeste 0 967.6 -0.5 50
2018-11-03 11:00:00 10.7 12 Oeste 24 Oeste 0 967.9 -0.3 57
2018-11-03 10:00:00 9.4 12 Oeste 24 Sudoeste 0 968.1 -0.2 65
2018-11-03 09:00:00 8.8 10 Oeste 16 Sudoeste 0 968.1 0 69
2018-11-03 08:00:00 6.5 9 Sudoeste 18 Sudoeste 0 968.2 0.1 78
2018-11-03 07:00:00 6.5 10 Sudoeste 17 Sudoeste 0 968.3 0.4 78
2018-11-03 06:00:00 6.7 9 Oeste 17 Oeste 0 968.1 -0.3 78
2018-11-03 05:00:00 7.1 10 Sudoeste 21 Oeste 0 968.1 -0.3 77
2018-11-03 04:00:00 7.5 11 Oeste 22 Sudoeste 0 967.9 -0.7 76
2018-11-03 03:00:00 7.8 8 Oeste 19 Oeste 0 968.4 -0.1 77
2018-11-03 02:00:00 8.5 10 Oeste 21 Oeste 0 968.4 -0.4 74
2018-11-03 01:00:00 8.8 12 Oeste 32 Oeste 0 968.6 -0.1 74
2018-11-03 00:00:00 9.2 17 Oeste 27 Oeste 0 968.5 0 72
2018-11-02 23:00:00 9.8 13 Oeste 33 Oeste 0 968.8 0.9 69
2018-11-02 22:00:00 10.3 14 Oeste 30 Oeste 0 968.7 1.4 69
2018-11-02 21:00:00 10.6 9 Oeste 20 Oeste 0 968.5 1.7 70
2018-11-02 20:00:00 11.5 9 Oeste 25 Oeste 0 967.9 1.6 71
2018-11-02 19:00:00 11.8 11 Oeste 22 Oeste 0 967.3 1.3 76
2018-11-02 18:00:00 12.7 9 Noroeste 27 Noroeste 0 966.8 1.2 75
2018-11-02 17:00:00 13 13 Noroeste 31 Noroeste 0 966.3 0.6 74
2018-11-02 16:00:00 12.3 12 Noroeste 31 Noroeste 0 966 0.2 75
2018-11-02 15:00:00 11.8 14 Noroeste 25 Noroeste 0 965.6 -0.1 82
2018-11-02 14:00:00 12.2 15 Noroeste 31 Noroeste 0 965.7 0.5 79
2018-11-02 13:00:00 12.1 19 Noroeste 30 Noroeste 0 965.8 0.9 79
2018-11-02 12:00:00 11.4 15 Noroeste 24 Noroeste 0 965.7 0.8 83
2018-11-02 11:00:00 10.8 7 Oeste 13 Oeste 0 965.2 1 86
2018-11-02 10:00:00 9.5 7 Sudoeste 11 Sudoeste 0 964.9 0.8 93
2018-11-02 09:00:00 8.6 0 Calma 7 Sudoeste 0.4 964.9 0.8 93
2018-11-02 08:00:00 8.5 5 Oeste 13 Sudoeste 0.2 964.2 0.6 92
2018-11-02 07:00:00 8.6 8 Sudoeste 14 Oeste 1.2 964.1 0.8 89
2018-11-02 06:00:00 8.8 7 Sudoeste 21 Oeste 0.6 964.1 0.4 86
2018-11-02 05:00:00 9.7 8 Oeste 14 Sudoeste 0 963.6 -0.2 74
2018-11-02 04:00:00 9.2 8 Sudoeste 20 Sudoeste 0 963.3 -0.7 71
2018-11-02 03:00:00 8.6 15 Sudoeste 23 Sudoeste 0 963.7 -0.7 73
2018-11-02 02:00:00 8.2 16 Sudoeste 22 Sudoeste 0 963.8 -0.7 76
2018-11-02 01:00:00 7.6 12 Sudoeste 16 Sudoeste 0 964 -0.4 80
2018-11-02 00:00:00 7.8 9 Sudoeste 17 Sudoeste 0 964.4 0.4 80
2018-11-01 23:00:00 8.5 10 Sudoeste 17 Sudoeste 0 964.5 0.8 79
2018-11-01 22:00:00 8.3 6 Sudoeste 14 Sudoeste 0 964.4 1.4 84
2018-11-01 21:00:00 9.4 10 Sudoeste 13 Sudoeste 0 964 1.7 80
2018-11-01 20:00:00 9.3 8 Oeste 12 Oeste 0 963.7 1.8 82
2018-11-01 19:00:00 9.7 5 Oeste 8 Oeste 0 963 1.5 79
2018-11-01 18:00:00 11.7 4 Noroeste 21 Noroeste 0 962.3 1.1 71
2018-11-01 17:00:00 13.3 13 Noroeste 25 Noroeste 0 961.9 0.7 59
2018-11-01 16:00:00 12.7 11 Noroeste 23 Noroeste 0 961.5 -0.1 67
2018-11-01 15:00:00 12.4 12 Noroeste 24 Noroeste 0 961.2 -0.5 66
2018-11-01 14:00:00 12.5 14 Noroeste 26 Noroeste 0 961.2 0.2 64
2018-11-01 13:00:00 11.8 13 Noroeste 26 Noroeste 0 961.6 1.3 68
2018-11-01 12:00:00 11 13 Noroeste 27 Noroeste 0 961.7 2.3 72
2018-11-01 11:00:00 9.9 14 Noroeste 22 Oeste 0 961 2.4 77
2018-11-01 10:00:00 8.5 7 Oeste 13 Noroeste 0 960.3 3.1 87
2018-11-01 09:00:00 7.7 4 Oeste 12 Oeste 0 959.4 3.2 90
2018-11-01 08:00:00 6.7 3 Oeste 6 Oeste 0 958.6 3.5 91
2018-11-01 07:00:00 6.4 4 Sudoeste 9 Oeste 0 957.2 2.4 91
2018-11-01 06:00:00 5.5 4 Oeste 9 Oeste 0 956.2 2.1 91
2018-11-01 05:00:00 5.4 2 Norte 6 Sur 0 955.1 1.2 92
2018-11-01 04:00:00 5.8 4 Sur 10 Noroeste 0 954.8 1.2 87
2018-11-01 03:00:00 6.8 6 Oeste 13 Oeste 0 954.1 1.2 83
2018-11-01 02:00:00 7.7 9 Oeste 18 Sudoeste 0 953.9 1.5 79
2018-11-01 01:00:00 7.8 13 Sudoeste 21 Sudoeste 0 953.6 1.8 76
2018-11-01 00:00:00 7.6 10 Sudoeste 16 Sudoeste 0 952.9 1.6 80
2018-10-31 23:00:00 7.1 7 Sudoeste 12 Sudoeste 0 952.4 1.6 91
2018-10-31 22:00:00 7.4 7 Oeste 10 Oeste 0.2 951.8 1.7 92
2018-10-31 21:00:00 7.3 4 Sudoeste 7 Sudoeste 0 951.3 1.9 94
2018-10-31 20:00:00 7.6 0 Calma 4 Este 0 950.8 2.6 92
2018-10-31 19:00:00 8 2 Nordeste 8 Oeste 0.4 950.1 2 90
2018-10-31 18:00:00 8.5 4 Oeste 11 Oeste 0.6 949.4 1.6 88
2018-10-31 17:00:00 9 4 Norte 20 Este 1.6 948.2 0.4 86
2018-10-31 16:00:00 10.3 9 Este 15 Este 0 948.1 0.4 87
2018-10-31 15:00:00 10.3 5 Norte 23 Sudoeste 0 947.8 0.3 81
2018-10-31 14:00:00 10.2 11 Sudoeste 19 Sudoeste 0.8 947.8 0.5 78
2018-10-31 13:00:00 10.1 3 Norte 8 Norte 0 947.7 0.5 93
2018-10-31 12:00:00 9.9 5 Norte 8 Este 0.4 947.5 0.6 95
2018-10-31 11:00:00 9.4 3 Nordeste 8 Nordeste 0 947.3 0.6 96
2018-10-31 10:00:00 9.3 3 Noroeste 4 Noroeste 0 947.2 0.6 94
2018-10-31 09:00:00 9.1 0 Calma 7 Sudeste 0 946.9 0.4 94
2018-10-31 08:00:00 8.7 3 Este 13 Sudoeste 0 946.7 -0.1 95
2018-10-31 07:00:00 8.7 5 Sudeste 10 Oeste 0.2 946.6 -0.8 97
2018-10-31 06:00:00 8.5 7 Oeste 12 Oeste 0.2 946.5 -1.3 98
2018-10-31 05:00:00 8.5 6 Noroeste 10 Norte 0.2 946.8 -1.9 98
2018-10-31 04:00:00 8.6 6 Norte 9 Noroeste 0.6 947.4 -1.9 98
2018-10-31 03:00:00 8.7 5 Noroeste 8 Noroeste 0.2 947.8 -1.9 97
2018-10-31 02:00:00 8.4 4 Noroeste 7 Oeste 0.6 948.7 -1.4 95
2018-10-31 01:00:00 8.5 3 Oeste 10 Noroeste 0 949.3 -1 92
2018-10-31 00:00:00 9 6 Noroeste 9 Noroeste 0.4 949.7 -0.4 88
2018-10-30 23:00:00 9.7 5 Este 12 Sudeste 0 950.1 0.2 81
2018-10-30 22:00:00 10 4 Este 30 Sudeste 0 950.3 0.5 79
2018-10-30 21:00:00 10.8 14 Sudeste 40 Sudeste 0 950.1 0.5 74
2018-10-30 20:00:00 10.7 14 Sudeste 28 Sudeste 0 949.9 0.5 73
2018-10-30 19:00:00 10.5 12 Sudeste 24 Sur 0 949.8 0.1 67
2018-10-30 18:00:00 10.4 12 Sur 48 Sudeste 0.2 949.6 -0.5 70
2018-10-30 17:00:00 11.2 19 Sudeste 31 Sudeste 0 949.4 -1.1 62
2018-10-30 16:00:00 11.3 8 Este 18 Sudeste 0 949.7 -1.4 68
2018-10-30 15:00:00 10.9 6 Sudeste 13 Este 0 950.1 -1.4 73
2018-10-30 14:00:00 9.9 6 Este 14 Sudeste 0.2 950.5 -1 85
2018-10-30 13:00:00 8.8 10 Sudeste 21 Sudeste 0.4 951.1 0.1 80
2018-10-30 12:00:00 8.5 4 Este 12 Sudeste 0.2 951.5 0.7 70
2018-10-30 11:00:00 8.6 8 Sur 18 Sudeste 0 951.5 1.7 56
2018-10-30 10:00:00 7.5 9 Sudeste 17 Sudeste 0 951 1.5 54
2018-10-30 09:00:00 4.5 4 Sur 7 Oeste 0 950.8 1.3 72
2018-10-30 08:00:00 3.6 4 Oeste 13 Sudoeste 0 949.8 0.9 68
2018-10-30 07:00:00 3.6 6 Sudoeste 11 Sudoeste 0 949.5 0.1 67
2018-10-30 06:00:00 2.2 3 Oeste 9 Sudoeste 0 949.5 0.4 76
2018-10-30 05:00:00 2.3 6 Sudeste 11 Sudoeste 0 948.9 0 74
2018-10-30 04:00:00 3.2 5 Oeste 12 Oeste 0 949.4 0.7 69
2018-10-30 03:00:00 4.4 8 Sudoeste 23 Sudoeste 0 949.1 0.8 62
2018-10-30 02:00:00 5.8 16 Sudoeste 25 Sudoeste 0 948.9 1 56
2018-10-30 01:00:00 5.5 12 Oeste 26 Sudoeste 0 948.7 1 58
2018-10-30 00:00:00 5.9 16 Oeste 26 Oeste 0 948.3 1.4 57
2018-10-29 23:00:00 6.2 12 Oeste 28 Oeste 0 947.9 1.5 55
2018-10-29 22:00:00 6.1 19 Oeste 31 Oeste 0 947.7 1.8 53
2018-10-29 21:00:00 5.1 10 Oeste 19 Oeste 0 946.9 1.8 56
2018-10-29 20:00:00 5.8 12 Oeste 36 Oeste 0 946.4 1.5 58
2018-10-29 19:00:00 6.6 23 Noroeste 54 Noroeste 0 945.9 1.8 55
2018-10-29 18:00:00 7.6 32 Noroeste 58 Oeste 0 945.1 1.4 51
2018-10-29 17:00:00 7.4 32 Oeste 55 Oeste 0 944.9 1.6 56
2018-10-29 16:00:00 8.3 28 Noroeste 54 Noroeste 0 944.1 0.8 55
2018-10-29 15:00:00 8.3 31 Oeste 57 Oeste 0 943.7 0.2 51
2018-10-29 14:00:00 8.5 34 Oeste 58 Oeste 0 943.3 -0.2 53
2018-10-29 13:00:00 8.9 35 Oeste 62 Oeste 0 943.3 -1 54
2018-10-29 12:00:00 8.7 33 Oeste 53 Oeste 0 943.5 -0.9 53
2018-10-29 11:00:00 8.2 29 Oeste 51 Oeste 0 943.5 -1.1 57
2018-10-29 10:00:00 7 25 Oeste 45 Oeste 0 944.3 -0.6 62
2018-10-29 09:00:00 5.2 22 Oeste 41 Oeste 0 944.4 -0.9 66
2018-10-29 08:00:00 4.4 18 Oeste 35 Oeste 0 944.6 -1.4 66
2018-10-29 07:00:00 4.2 20 Oeste 31 Oeste 0 944.9 -1.4 64
2018-10-29 06:00:00 4.2 18 Oeste 27 Oeste 0 945.3 -2 62
2018-10-29 05:00:00 3.9 15 Oeste 29 Oeste 0 946 -1.4 62
2018-10-29 04:00:00 3.7 12 Oeste 24 Oeste 0 946.3 -1.4 63
2018-10-29 03:00:00 3.5 10 Sudoeste 21 Oeste 0 947.3 -1.2 65
2018-10-29 02:00:00 3.6 11 Oeste 17 Oeste 0 947.4 -1.3 66
2018-10-29 01:00:00 3.9 11 Oeste 21 Oeste 0 947.7 -1.1 65
2018-10-29 00:00:00 3.8 7 Oeste 22 Noroeste 0 948.5 0 69
2018-10-28 23:00:00 4 12 Oeste 22 Noroeste 0 948.7 0.5 69
2018-10-28 22:00:00 4.3 12 Oeste 23 Oeste 0 948.8 0.7 67
2018-10-28 21:00:00 4.7 11 Oeste 26 Oeste 0 948.5 1 59
2018-10-28 20:00:00 5.1 11 Oeste 26 Noroeste 0 948.2 1 57
2018-10-28 19:00:00 6.2 16 Oeste 26 Oeste 0 948.1 1.1 51
2018-10-28 18:00:00 6 12 Oeste 26 Oeste 0 947.5 0.7 57
2018-10-28 17:00:00 6.2 17 Noroeste 34 Noroeste 0 947.2 0.7 55
2018-10-28 16:00:00 6.7 20 Noroeste 33 Oeste 0 947 0.2 51
2018-10-28 15:00:00 7.2 16 Oeste 37 Noroeste 0 946.8 0.1 50
2018-10-28 14:00:00 7.3 23 Noroeste 39 Oeste 0 946.5 -0.5 47
2018-10-28 13:00:00 8 17 Noroeste 34 Oeste 0 946.8 -0.2 48
2018-10-28 12:00:00 7.6 20 Oeste 37 Noroeste 0 946.7 0.1 53
2018-10-28 11:00:00 6.6 22 Noroeste 36 Oeste 0 947 1.2 56
2018-10-28 10:00:00 5.8 18 Oeste 33 Noroeste 0 947 1.3 60
2018-10-28 09:00:00 5.3 14 Oeste 32 Noroeste 0 946.6 0.8 62
2018-10-28 08:00:00 4.9 16 Oeste 31 Oeste 0 945.8 0 66
2018-10-28 07:00:00 5.1 13 Oeste 25 Oeste 0 945.7 0.5 66
2018-10-28 06:00:00 5.4 7 Oeste 30 Oeste 0 945.8 0.1 66
2018-10-28 05:00:00 5.6 14 Oeste 32 Oeste 0 945.8 -0.4 65
2018-10-28 04:00:00 5.5 18 Oeste 32 Oeste 0 945.2 -1.4 67
2018-10-28 03:00:00 5.5 15 Oeste 25 Oeste 0 945.7 -1.5 67
2018-10-28 02:00:00 5.4 12 Oeste 24 Oeste 0 946.2 -1.2 69
2018-10-28 01:00:00 6.5 14 Oeste 30 Noroeste 0.2 947.2 -0.6 64
2018-10-28 00:00:00 7.2 18 Oeste 35 Oeste 0 947.4 -1 63
2018-10-27 23:00:00 7.8 16 Noroeste 31 Noroeste 0 947.6 -1.1 62
2018-10-27 22:00:00 8.1 15 Oeste 28 Oeste 0 947.8 -0.1 62
2018-10-27 21:00:00 7.9 12 Oeste 34 Noroeste 0.2 948.4 -0.1 63
2018-10-27 20:00:00 8.8 19 Oeste 32 Oeste 0.2 948.7 -0.6 64
2018-10-27 19:00:00 9.8 20 Oeste 32 Oeste 0 947.9 -2.2 59
2018-10-27 18:00:00 10.4 18 Noroeste 33 Noroeste 0 948.5 -2.7 57
2018-10-27 17:00:00 11.1 19 Noroeste 41 Oeste 0 949.3 -3 51
2018-10-27 16:00:00 12.3 26 Noroeste 43 Oeste 0 950.1 -3.7 51
2018-10-27 15:00:00 11.5 25 Oeste 42 Noroeste 0 951.2 -2.9 58
2018-10-27 14:00:00 11 23 Noroeste 38 Noroeste 0 952.3 -2.2 62
2018-10-27 13:00:00 9.7 18 Oeste 41 Oeste 0 953.8 -0.7 71
2018-10-27 12:00:00 9.4 23 Oeste 41 Oeste 0 954.1 -0.5 80
2018-10-27 11:00:00 10.1 18 Oeste 40 Noroeste 0 954.5 0 86
2018-10-27 10:00:00 10.3 11 Oeste 21 Oeste 1.2 954.5 -0.5 87
2018-10-27 09:00:00 10.2 11 Oeste 23 Oeste 1.4 954.6 -0.5 87
2018-10-27 08:00:00 10.7 12 Oeste 24 Oeste 0.2 954.5 -0.8 85
2018-10-27 07:00:00 11.2 8 Oeste 24 Oeste 2.2 955 -1 86
2018-10-27 06:00:00 11.6 11 Oeste 27 Oeste 1.8 955.1 -1.5 88
2018-10-27 05:00:00 12.8 9 Oeste 18 Oeste 0 955.3 -1.4 86
2018-10-27 04:00:00 12.8 8 Sudoeste 15 Sudoeste 0 956 -1.5 88
2018-10-27 03:00:00 13.3 11 Sudoeste 18 Sudoeste 0.6 956.6 -1.1 88
2018-10-27 02:00:00 14.3 9 Oeste 22 Oeste 0 956.7 -1.6 75
2018-10-27 01:00:00 14.1 7 Sudoeste 10 Sudoeste 0 957.5 -0.2 87
2018-10-27 00:00:00 14.5 2 Sudoeste 6 Oeste 0.4 957.7 0.4 88
2018-10-26 23:00:00 15.1 5 Oeste 15 Oeste 0.8 958.3 1.1 82
2018-10-26 22:00:00 16.2 6 Oeste 10 Sudoeste 0 957.7 0.6 82
2018-10-26 21:00:00 16.7 3 Noroeste 7 Sur 0 957.3 -0.2 79
2018-10-26 20:00:00 17.2 4 Noroeste 9 Oeste 0 957.2 -0.6 72
2018-10-26 19:00:00 18.4 2 Norte 5 Noroeste 0 957.1 -0.8 61
2018-10-26 18:00:00 19.4 3 Norte 8 Noroeste 0 957.5 -1 53
2018-10-26 17:00:00 19.5 6 Norte 10 Norte 0 957.8 -1.6 53
2018-10-26 16:00:00 19.5 7 Norte 12 Norte 0 957.9 -2.4 52
2018-10-26 15:00:00 19.8 7 Norte 12 Norte 0 958.5 -2.1 48
2018-10-26 14:00:00 19.6 5 Nordeste 12 Norte 0 959.4 -1.4 47
2018-10-26 13:00:00 18.4 7 Norte 10 Norte 0 960.3 -0.6 52
2018-10-26 12:00:00 18.2 2 Nordeste 14 Sudoeste 0 960.6 -0.3 42
2018-10-26 11:00:00 16.4 3 Sur 16 Sudoeste 0 960.8 0.1 47
2018-10-26 10:00:00 14.2 10 Sur 16 Sudoeste 0 960.9 0.1 53
2018-10-26 09:00:00 12.1 12 Sudoeste 21 Sudoeste 0 960.9 0.4 64
2018-10-26 08:00:00 11.7 9 Sudoeste 21 Sudoeste 0 960.7 -0.6 66
2018-10-26 07:00:00 12.1 12 Sudoeste 19 Sudoeste 0 960.8 -1 64
2018-10-26 06:00:00 12.2 10 Sudoeste 15 Sudoeste 0 960.5 -1.7 66
2018-10-26 05:00:00 12.7 12 Sudoeste 17 Sudoeste 0 961.3 -1.2 62
2018-10-26 04:00:00 13 14 Sudoeste 18 Sudoeste 0 961.8 -0.5 63
2018-10-26 03:00:00 13.3 6 Sudoeste 18 Sudoeste 0 962.2 -0.4 63
2018-10-26 02:00:00 13.5 3 Sudoeste 17 Sudoeste 0 962.5 -0.3 63
2018-10-26 01:00:00 14.6 9 Sudoeste 18 Sudoeste 0 962.3 -0.4 61
2018-10-26 00:00:00 15.6 14 Sudoeste 24 Sudoeste 0 962.6 -0.1 58
2018-10-25 23:00:00 15.4 12 Sudoeste 19 Sudoeste 0 962.8 0.1 60
2018-10-25 22:00:00 15.2 9 Sudoeste 14 Sudoeste 0 962.7 0.1 66
2018-10-25 21:00:00 15.2 7 Sudoeste 11 Sudoeste 0 962.7 0.1 66
2018-10-25 20:00:00 16.4 3 Oeste 6 Oeste 0 962.7 -0.2 65
2018-10-25 19:00:00 20.7 0 Calma 5 Norte 0 962.6 -0.6 46
2018-10-25 18:00:00 22.1 3 Noroeste 8 Norte 0 962.6 -1.2 37
2018-10-25 17:00:00 21.4 5 Norte 12 Norte 0 962.9 -1.8 38
2018-10-25 16:00:00 21.3 5 Nordeste 12 Nordeste 0 963.2 -2.3 38
2018-10-25 15:00:00 20.8 6 Norte 13 Norte 0 963.8 -2.1 37
2018-10-25 14:00:00 19.9 6 Norte 12 Norte 0 964.7 -1.4 38
2018-10-25 13:00:00 19.7 4 Nordeste 9 Este 0 965.5 -0.5 33
2018-10-25 12:00:00 18.6 3 Sur 12 Sudoeste 0 965.9 0.4 37
2018-10-25 11:00:00 15.5 10 Sudoeste 16 Sudoeste 0 966.1 1.1 46
2018-10-25 10:00:00 12.8 13 Sudoeste 17 Sudoeste 0 966 0.8 54
2018-10-25 09:00:00 10.1 14 Sudoeste 20 Sudoeste 0 965.5 0.1 66
2018-10-25 08:00:00 9.8 14 Sudoeste 20 Sudoeste 0 965 -0.6 67
2018-10-25 07:00:00 10.3 14 Sudoeste 19 Sudoeste 0 965.2 -0.9 68
2018-10-25 06:00:00 10.5 13 Sudoeste 18 Sudoeste 0 965.4 -1.1 67
2018-10-25 05:00:00 11.1 10 Sudoeste 16 Sudoeste 0 965.6 -1.2 67
2018-10-25 04:00:00 11.4 12 Sudoeste 19 Sudoeste 0 966.1 -0.7 66
2018-10-25 03:00:00 12 16 Sudoeste 22 Sudoeste 0 966.5 -0.5 64
2018-10-25 02:00:00 12.9 10 Sudoeste 18 Sudoeste 0 966.8 -0.2 64
2018-10-25 01:00:00 13.3 13 Sudoeste 17 Sudoeste 0 966.8 -0.2 60
2018-10-25 00:00:00 14 8 Sudoeste 19 Sudoeste 0 967 -0.2 58
2018-10-24 23:00:00 14.9 15 Sudoeste 21 Sudoeste 0 967 -0.4 57
2018-10-24 22:00:00 15.1 16 Sudoeste 21 Sudoeste 0 967 -0.2 60
2018-10-24 21:00:00 14.3 6 Sudoeste 11 Sudoeste 0 967.2 0 66
2018-10-24 20:00:00 16.1 4 Oeste 6 Oeste 0 967.4 -0.4 61
2018-10-24 19:00:00 19.8 4 Norte 8 Noroeste 0 967.2 -1.1 45
2018-10-24 18:00:00 20.8 7 Norte 12 Norte 0 967.2 -1.9 39
2018-10-24 17:00:00 20.5 8 Norte 15 Norte 0 967.8 -2.2 39
2018-10-24 16:00:00 19.5 7 Norte 17 Norte 0 968.3 -2.2 43
2018-10-24 15:00:00 18.6 7 Norte 21 Norte 0 969.1 -1.9 45
2018-10-24 14:00:00 18.2 7 Norte 16 Noroeste 0 970 -1.4 43
2018-10-24 13:00:00 17.5 4 Norte 10 Sudeste 0 970.5 -0.8 44
2018-10-24 12:00:00 16.7 3 Este 12 Sur 0 971 0.1 44
2018-10-24 11:00:00 14.2 9 Sudoeste 14 Sudoeste 0 971.4 0.4 57
2018-10-24 10:00:00 11.3 12 Sudoeste 19 Sudoeste 0 971.3 -0.4 73
2018-10-24 09:00:00 8.9 5 Sudoeste 21 Sudoeste 0 970.9 -0.6 81
2018-10-24 08:00:00 8.6 11 Sudoeste 17 Sudoeste 0 971 -0.5 83
2018-10-24 07:00:00 9.1 9 Sudoeste 13 Sudoeste 0 971.7 -0.2 83
2018-10-24 06:00:00 9.5 6 Sudoeste 15 Sudoeste 0 971.5 -0.8 82
2018-10-24 05:00:00 10.3 9 Sudoeste 16 Sudoeste 0 971.5 -0.9 79
2018-10-24 04:00:00 11 11 Sudoeste 17 Sudoeste 0 971.9 -0.3 71
2018-10-24 03:00:00 11.4 9 Sur 18 Sudoeste 0 972.3 -0.1 72
2018-10-24 02:00:00 12 12 Sudoeste 18 Sudoeste 0 972.4 0 68
2018-10-24 01:00:00 13.2 11 Sudoeste 21 Sudoeste 0 972.2 0 63
2018-10-24 00:00:00 13 12 Sudoeste 18 Sudoeste 0 972.4 0.5 65
2018-10-23 23:00:00 13.9 13 Sudoeste 21 Sudoeste 0 972.4 0.6 62
2018-10-23 22:00:00 13.9 13 Sudoeste 19 Sudoeste 0 972.2 0.8 64
2018-10-23 21:00:00 14.3 14 Sudoeste 19 Sudoeste 0 971.9 0.6 64
2018-10-23 20:00:00 15.2 2 Sudoeste 5 Sudoeste 0 971.8 0.4 66
2018-10-23 19:00:00 17.7 3 Norte 15 Norte 0 971.4 -0.2 51
2018-10-23 18:00:00 18.7 6 Norte 14 Norte 0 971.3 -0.4 43
2018-10-23 17:00:00 18.8 7 Norte 19 Norte 0 971.4 -0.9 45
2018-10-23 16:00:00 18.5 10 Norte 22 Norte 0 971.6 -1.9 48
2018-10-23 15:00:00 18.1 9 Norte 18 Norte 0 971.7 -1.9 46
2018-10-23 14:00:00 17.7 8 Noroeste 14 Norte 0 972.3 -1.4 46
2018-10-23 13:00:00 16.5 8 Noroeste 17 Oeste 0 973.5 0.2 48
2018-10-23 12:00:00 15.4 10 Oeste 16 Oeste 0 973.6 0.9 51
2018-10-23 11:00:00 14.2 9 Sudoeste 17 Sudoeste 0 973.7 1.6 51
2018-10-23 10:00:00 11.5 13 Sudoeste 18 Sudoeste 0 973.3 1.2 59
2018-10-23 09:00:00 9.7 13 Sudoeste 17 Sudoeste 0 972.7 1 67
2018-10-23 08:00:00 9.5 9 Sudoeste 14 Oeste 0 972.1 0.3 68
2018-10-23 07:00:00 10.2 9 Sudoeste 16 Sudoeste 0 972.1 0.4 64
2018-10-23 06:00:00 10.7 12 Sudoeste 22 Sudoeste 0 971.7 -0.3 62
2018-10-23 05:00:00 10.3 9 Sudoeste 18 Sudoeste 0 971.8 -0.2 65
2018-10-23 04:00:00 10.3 9 Sudoeste 17 Sudoeste 0 971.7 0 63
2018-10-23 03:00:00 10 8 Oeste 12 Oeste 0 972 0.4 67
2018-10-23 02:00:00 11.2 6 Oeste 15 Sudoeste 0 972 0.9 61
2018-10-23 01:00:00 11.9 9 Oeste 17 Sudoeste 0 971.7 1.6 57
2018-10-23 00:00:00 12.7 12 Sudoeste 17 Sudoeste 0 971.6 2.2 58
2018-10-22 23:00:00 13.1 6 Sudoeste 17 Oeste 0 971.1 2.4 64
2018-10-22 22:00:00 14.3 7 Oeste 15 Oeste 0 970.1 1.7 63
2018-10-22 21:00:00 14.4 8 Oeste 12 Sudoeste 0 969.4 1.3 68
2018-10-22 20:00:00 15.7 6 Sudoeste 9 Oeste 0 968.7 0.9 65
2018-10-22 19:00:00 18.5 7 Noroeste 19 Noroeste 0 968.4 0.8 53
2018-10-22 18:00:00 19.6 11 Noroeste 21 Noroeste 0 968.1 -0.1 46
2018-10-22 17:00:00 20.1 11 Noroeste 20 Noroeste 0 967.8 -0.9 46
2018-10-22 16:00:00 20.1 10 Noroeste 19 Noroeste 0 967.6 -1.3 48
2018-10-22 15:00:00 19.6 10 Noroeste 17 Noroeste 0 968.2 -0.6 49
2018-10-22 14:00:00 18.6 13 Norte 25 Noroeste 0 968.7 0.2 56
2018-10-22 13:00:00 18.1 12 Noroeste 22 Noroeste 0 968.9 0.8 59
2018-10-22 12:00:00 17.2 15 Noroeste 24 Noroeste 0 968.8 1.5 60
2018-10-22 11:00:00 16.3 14 Noroeste 28 Noroeste 0 968.5 1.9 63
2018-10-22 10:00:00 15.2 8 Sudoeste 14 Sudoeste 0 968.1 1.9 74
2018-10-22 09:00:00 12.6 6 Sudoeste 11 Sudoeste 0 967.3 1.4 83
2018-10-22 08:00:00 12.3 6 Sudoeste 15 Sudoeste 0 966.6 0.8 86
2018-10-22 07:00:00 12.8 6 Sudoeste 20 Sudoeste 0 966.2 0.2 86
2018-10-22 06:00:00 13.5 10 Sudoeste 19 Sudoeste 0 965.9 -0.2 85
2018-10-22 05:00:00 14 10 Sudoeste 17 Sudoeste 0 965.8 -0.5 83
2018-10-22 04:00:00 14.6 12 Sudoeste 19 Sudoeste 0 966 -0.2 82
2018-10-22 03:00:00 15.3 10 Sudoeste 18 Sudoeste 0 966.1 0 83
2018-10-22 02:00:00 15.9 12 Sudoeste 19 Sudoeste 0 966.3 0.3 85
2018-10-22 01:00:00 15.7 12 Sudoeste 17 Sudoeste 0 966.2 0.6 87
2018-10-22 00:00:00 15.5 9 Sudoeste 17 Sudoeste 0 966.1 0.3 88
2018-10-21 23:00:00 16 10 Sudoeste 18 Sudoeste 0 966 0 87
2018-10-21 22:00:00 16.3 12 Sudoeste 19 Sudoeste 0 965.6 0 87
2018-10-21 21:00:00 15.9 5 Sudoeste 6 Sudoeste 0 965.8 -0.3 87
2018-10-21 20:00:00 17.5 4 Oeste 5 Oeste 0 966 -0.5 84
2018-10-21 19:00:00 19.7 0 Calma 6 Nordeste 0 965.6 -1.4 73
2018-10-21 18:00:00 20.2 4 Nordeste 10 Noroeste 0 966.1 -1.3 69
2018-10-21 17:00:00 20.7 6 Noroeste 14 Nordeste 0 966.5 -1.7 65
2018-10-21 16:00:00 20.2 7 Norte 13 Nordeste 0 967 -1.9 70
2018-10-21 15:00:00 19.4 7 Nordeste 13 Norte 0 967.4 -2 74
2018-10-21 14:00:00 18.7 4 Norte 10 Nordeste 0 968.2 -1.5 78
2018-10-21 13:00:00 17.5 5 Norte 9 Norte 0 968.9 -1 78
2018-10-21 12:00:00 16.4 4 Nordeste 8 Nordeste 0 969.4 -0.2 83
2018-10-21 11:00:00 15.4 2 Sudoeste 9 Sudoeste 0 969.7 0.4 88
2018-10-21 10:00:00 13.2 3 Sudoeste 6 Sudoeste 0 969.9 0.7 97
2018-10-21 09:00:00 11.4 5 Sudoeste 10 Oeste 0 969.6 0.6 97
2018-10-21 08:00:00 11.5 4 Oeste 8 Oeste 0 969.3 0.1 97
2018-10-21 07:00:00 12.3 6 Oeste 11 Sudoeste 0 969.2 -0.1 97
2018-10-21 06:00:00 12.2 4 Oeste 8 Sudoeste 0 969 -0.3 97
2018-10-21 05:00:00 12.8 4 Sudoeste 9 Sudoeste 0 969.2 -0.2 97
2018-10-21 04:00:00 13.1 6 Oeste 11 Oeste 0 969.3 -0.1 97
2018-10-21 03:00:00 13.3 3 Sudoeste 10 Sudoeste 0 969.3 -0.3 97
2018-10-21 02:00:00 13.8 8 Sudoeste 12 Sudoeste 0 969.4 0.1 98
2018-10-21 01:00:00 13.8 3 Sudoeste 9 Sudoeste 0 969.4 0.6 97
2018-10-21 00:00:00 14.4 3 Noroeste 8 Oeste 0 969.6 0.7 96
2018-10-20 23:00:00 14.9 4 Noroeste 10 Sudoeste 0 969.3 0.6 95
2018-10-20 22:00:00 15.5 2 Sudoeste 8 Sudoeste 0 968.8 0.6 95
2018-10-20 21:00:00 15.9 4 Oeste 6 Sudoeste 0 968.9 0.6 94
2018-10-20 20:00:00 16.4 2 Sudoeste 4 Sudoeste 0 968.7 0.5 92
2018-10-20 19:00:00 17.3 0 Calma 7 Este 0 968.2 -0.3 87
2018-10-20 18:00:00 18 4 Sudeste 9 Este 0 968.3 -0.3 85
2018-10-20 17:00:00 17.6 4 Sudeste 7 Sur 0 968.2 -0.8 86
2018-10-20 16:00:00 16.5 5 Sudoeste 8 Sudoeste 0 968.5 -0.8 91
2018-10-20 15:00:00 15.9 3 Sur 6 Este 0 968.6 -0.3 96
2018-10-20 14:00:00 15.5 3 Nordeste 10 Noroeste 0 969 0.1 98
2018-10-20 13:00:00 14.8 6 Noroeste 12 Norte 0 969.3 1.1 100
2018-10-20 12:00:00 14.5 5 Norte 7 Norte 0 968.9 1.7 100
2018-10-20 11:00:00 14.2 5 Norte 8 Norte 0 968.9 2 100
2018-10-20 10:00:00 14 4 Norte 7 Norte 0 968.2 1.6 100
2018-10-20 09:00:00 14 0 Calma 7 Norte 0 967.2 1 99
2018-10-20 08:00:00 13.9 5 Norte 9 Norte 0 966.9 1.6 99
2018-10-20 07:00:00 13.9 3 Noroeste 6 Oeste 0 966.6 0.7 99
2018-10-20 06:00:00 13.7 3 Oeste 7 Oeste 0 966.2 0.9 99
2018-10-20 05:00:00 13.3 4 Noroeste 6 Noroeste 0 965.3 0.2 99
2018-10-20 04:00:00 13.4 0 Calma 5 Norte 0.2 965.9 0.9 99
2018-10-20 03:00:00 13.8 3 Sur 8 Noroeste 0 965.3 0.1 99
2018-10-20 02:00:00 14 4 Oeste 8 Oeste 0 965.1 0.6 99
2018-10-20 01:00:00 13.8 4 Oeste 10 Noroeste 0.2 965 1.4 99
2018-10-20 00:00:00 14 5 Noroeste 9 Norte 1.2 965.2 2.1 99
2018-10-19 23:00:00 14.1 2 Sudeste 6 Norte 4.2 964.5 2.3 98
2018-10-19 22:00:00 14.4 3 Norte 10 Nordeste 4.4 963.6 2.1 98
2018-10-19 21:00:00 14.7 4 Oeste -- -- -- 963.1 2.3 97
2018-10-19 20:00:00 15.7 10 Este 18 Nordeste 5.4 962.2 1.2 99
2018-10-19 19:00:00 16.1 8 Norte 21 Norte 5 961.5 0.4 99
2018-10-19 18:00:00 16 9 Norte 17 Norte 5.8 960.8 -0.1 99
2018-10-19 17:00:00 16 10 Norte 16 Norte 5.6 961 0 99
2018-10-19 16:00:00 16.1 8 Norte 16 Norte 3.4 961.1 -0.2 99
2018-10-19 15:00:00 16.1 8 Norte 18 Norte 0.8 960.9 -0.2 99
2018-10-19 14:00:00 15.7 10 Norte 20 Norte 0.6 961 0.1 99
2018-10-19 13:00:00 15.3 11 Norte 21 Norte 0.2 961.3 0.7 99
2018-10-19 12:00:00 15 11 Norte 19 Norte 0.4 961.1 1.3 99
2018-10-19 11:00:00 14.8 10 Norte 15 Norte 0 960.9 1.8 99
2018-10-19 10:00:00 14.7 6 Norte 17 Norte 0 960.6 1.5 99
2018-10-19 09:00:00 14.5 10 Norte 17 Norte 0 959.8 1.6 99
2018-10-19 08:00:00 14.5 10 Norte 15 Norte 0 959.1 0 99
2018-10-19 07:00:00 14.6 7 Norte 14 Noroeste 0.2 959.1 -0.1 99
2018-10-19 06:00:00 14.4 9 Norte 18 Norte 2.8 958.2 -1.1 99
2018-10-19 05:00:00 14.6 9 Norte 17 Norte 5.6 959.1 -0.2 99
2018-10-19 04:00:00 14.8 9 Norte 15 Noroeste 4.4 959.2 0 99
2018-10-19 03:00:00 14.8 10 Noroeste 15 Noroeste 2.8 959.3 0.2 99
2018-10-19 02:00:00 14.9 10 Norte 19 Noroeste 3 959.3 0.6 99
2018-10-19 01:00:00 15.1 12 Norte 18 Norte 3.4 959.2 0.9 99
2018-10-19 00:00:00 15.2 10 Norte 18 Norte 1.4 959.1 0.9 99
2018-10-18 23:00:00 15.2 10 Norte 19 Noroeste 2.4 958.7 0.8 99
2018-10-18 22:00:00 15.2 12 Norte 18 Norte 5.6 958.3 1.1 99
2018-10-18 21:00:00 15.2 11 Norte 18 Norte 5 958.2 0.9 99
2018-10-18 20:00:00 15 14 Norte 26 Noroeste 2 957.9 0.4 98
2018-10-18 19:00:00 15 13 Noroeste 22 Noroeste 4 957.2 -0.3 97
2018-10-18 18:00:00 14.9 3 Este 17 Noroeste 2.6 957.3 -0.8 95
2018-10-18 17:00:00 15.2 10 Norte 18 Norte 2.4 957.5 -1.3 92
2018-10-18 16:00:00 16.5 8 Norte 16 Norte 0 957.5 -1.7 84
2018-10-18 15:00:00 16 6 Norte 10 Norte 0 958.1 -1.2 86
2018-10-18 14:00:00 15.7 4 Norte 8 Norte 0 958.8 -0.5 83
2018-10-18 13:00:00 14.9 3 Norte 6 Nordeste 0 959.2 0.1 85
2018-10-18 12:00:00 14.4 3 Norte 9 Nordeste 0 959.3 0.6 83
2018-10-18 11:00:00 14.2 3 Norte 6 Norte 0 959.3 0.8 81
2018-10-18 10:00:00 12.3 0 Calma 8 Oeste 0 959.1 0.6 88
2018-10-18 09:00:00 11 3 Oeste 6 Sudoeste 0 958.7 0.5 89
2018-10-18 08:00:00 11.6 3 Oeste 7 Sudoeste 0 958.5 0 85
2018-10-18 07:00:00 12.3 4 Oeste 15 Sudoeste 0 958.5 -0.3 82
2018-10-18 06:00:00 12.6 6 Oeste 13 Sudoeste 0 958.2 -1 82
2018-10-18 05:00:00 13 5 Oeste 17 Sudoeste 0 958.5 -1 81
2018-10-18 04:00:00 13.7 9 Sudoeste 18 Sudoeste 0 958.8 -1.1 78
2018-10-18 03:00:00 14.1 5 Sudoeste 12 Sudoeste 0 959.2 -1 80
2018-10-18 02:00:00 13.5 3 Sudoeste 10 Sudoeste 0 959.5 -0.7 85
2018-10-18 01:00:00 14.7 9 Sudoeste 12 Sudoeste 0 959.9 -0.1 80
2018-10-18 00:00:00 14.5 5 Sudoeste 10 Sudoeste 0 960.2 0.5 80